sensor_id;sensor_type;location;lat;lon;timestamp;pressure;altitude;pressure_sealevel;temperature
19644;BMP180;9970;-36.854;174.870;2023-04-03T00:01:01;101222.00;;;20.10
19644;BMP180;9970;-36.854;174.870;2023-04-03T00:03:34;101218.00;;;20.00
19644;BMP180;9970;-36.854;174.870;2023-04-03T00:06:07;101223.00;;;20.00
19644;BMP180;9970;-36.854;174.870;2023-04-03T00:08:41;101215.00;;;20.00
19644;BMP180;9970;-36.854;174.870;2023-04-03T00:11:14;101214.00;;;20.00
19644;BMP180;9970;-36.854;174.870;2023-04-03T00:13:47;101215.00;;;20.00
19644;BMP180;9970;-36.854;174.870;2023-04-03T00:16:20;101212.00;;;20.00
19644;BMP180;9970;-36.854;174.870;2023-04-03T00:18:53;101209.00;;;20.00
19644;BMP180;9970;-36.854;174.870;2023-04-03T00:21:26;101213.00;;;20.00
19644;BMP180;9970;-36.854;174.870;2023-04-03T00:24:00;101210.00;;;20.10
19644;BMP180;9970;-36.854;174.870;2023-04-03T00:26:33;101214.00;;;20.10
19644;BMP180;9970;-36.854;174.870;2023-04-03T00:29:11;101213.00;;;20.00
19644;BMP180;9970;-36.854;174.870;2023-04-03T00:31:44;101224.00;;;20.00
19644;BMP180;9970;-36.854;174.870;2023-04-03T00:34:17;101233.00;;;20.00
19644;BMP180;9970;-36.854;174.870;2023-04-03T00:36:50;101238.00;;;20.00
19644;BMP180;9970;-36.854;174.870;2023-04-03T00:39:23;101226.00;;;19.90
19644;BMP180;9970;-36.854;174.870;2023-04-03T00:41:56;101234.00;;;19.90
19644;BMP180;9970;-36.854;174.870;2023-04-03T00:47:09;101222.00;;;19.80
19644;BMP180;9970;-36.854;174.870;2023-04-03T00:49:43;101208.00;;;19.80
19644;BMP180;9970;-36.854;174.870;2023-04-03T00:52:19;101205.00;;;19.80
19644;BMP180;9970;-36.854;174.870;2023-04-03T00:54:59;101221.00;;;19.80
19644;BMP180;9970;-36.854;174.870;2023-04-03T00:57:32;101202.00;;;19.80
19644;BMP180;9970;-36.854;174.870;2023-04-03T01:00:11;101202.00;;;19.90
19644;BMP180;9970;-36.854;174.870;2023-04-03T01:02:46;101205.00;;;19.90
19644;BMP180;9970;-36.854;174.870;2023-04-03T01:05:23;101203.00;;;19.90
19644;BMP180;9970;-36.854;174.870;2023-04-03T01:07:56;101202.00;;;19.90
19644;BMP180;9970;-36.854;174.870;2023-04-03T01:10:30;101193.00;;;19.90
19644;BMP180;9970;-36.854;174.870;2023-04-03T01:13:17;101197.00;;;19.90
19644;BMP180;9970;-36.854;174.870;2023-04-03T01:15:38;101183.00;;;19.90
19644;BMP180;9970;-36.854;174.870;2023-04-03T01:18:11;101197.00;;;19.90
19644;BMP180;9970;-36.854;174.870;2023-04-03T01:21:00;101184.00;;;19.80
19644;BMP180;9970;-36.854;174.870;2023-04-03T01:26:13;101172.00;;;19.70
19644;BMP180;9970;-36.854;174.870;2023-04-03T01:28:46;101175.00;;;19.70
19644;BMP180;9970;-36.854;174.870;2023-04-03T01:31:27;101176.00;;;19.70
19644;BMP180;9970;-36.854;174.870;2023-04-03T01:34:06;101172.00;;;19.70
19644;BMP180;9970;-36.854;174.870;2023-04-03T01:36:39;101188.00;;;19.70
19644;BMP180;9970;-36.854;174.870;2023-04-03T01:39:12;101182.00;;;19.70
19644;BMP180;9970;-36.854;174.870;2023-04-03T01:41:47;101165.00;;;19.70
19644;BMP180;9970;-36.854;174.870;2023-04-03T01:44:20;101169.00;;;19.70
19644;BMP180;9970;-36.854;174.870;2023-04-03T01:46:53;101182.00;;;19.70
19644;BMP180;9970;-36.854;174.870;2023-04-03T01:49:26;101171.00;;;19.70
19644;BMP180;9970;-36.854;174.870;2023-04-03T01:51:59;101173.00;;;19.70
19644;BMP180;9970;-36.854;174.870;2023-04-03T01:54:32;101161.00;;;19.70
19644;BMP180;9970;-36.854;174.870;2023-04-03T01:57:05;101162.00;;;19.70
19644;BMP180;9970;-36.854;174.870;2023-04-03T01:59:39;101165.00;;;19.70
19644;BMP180;9970;-36.854;174.870;2023-04-03T02:02:12;101147.00;;;19.70
19644;BMP180;9970;-36.854;174.870;2023-04-03T02:04:45;101156.00;;;19.70
19644;BMP180;9970;-36.854;174.870;2023-04-03T02:07:18;101147.00;;;19.70
19644;BMP180;9970;-36.854;174.870;2023-04-03T02:09:52;101155.00;;;19.70
19644;BMP180;9970;-36.854;174.870;2023-04-03T02:12:25;101149.00;;;19.70
19644;BMP180;9970;-36.854;174.870;2023-04-03T02:14:58;101154.00;;;19.80
19644;BMP180;9970;-36.854;174.870;2023-04-03T02:17:36;101148.00;;;19.80
19644;BMP180;9970;-36.854;174.870;2023-04-03T02:20:09;101147.00;;;19.90
19644;BMP180;9970;-36.854;174.870;2023-04-03T02:22:43;101148.00;;;19.90
19644;BMP180;9970;-36.854;174.870;2023-04-03T02:25:16;101151.00;;;19.90
19644;BMP180;9970;-36.854;174.870;2023-04-03T02:27:49;101155.00;;;19.90
19644;BMP180;9970;-36.854;174.870;2023-04-03T02:30:22;101146.00;;;19.90
19644;BMP180;9970;-36.854;174.870;2023-04-03T02:32:55;101155.00;;;19.90
19644;BMP180;9970;-36.854;174.870;2023-04-03T02:35:28;101159.00;;;19.90
19644;BMP180;9970;-36.854;174.870;2023-04-03T02:38:01;101156.00;;;19.90
19644;BMP180;9970;-36.854;174.870;2023-04-03T02:40:34;101150.00;;;19.90
19644;BMP180;9970;-36.854;174.870;2023-04-03T02:43:07;101142.00;;;19.90
19644;BMP180;9970;-36.854;174.870;2023-04-03T02:45:41;101141.00;;;19.90
19644;BMP180;9970;-36.854;174.870;2023-04-03T02:48:14;101136.00;;;19.90
19644;BMP180;9970;-36.854;174.870;2023-04-03T02:50:47;101133.00;;;19.90
19644;BMP180;9970;-36.854;174.870;2023-04-03T02:53:20;101133.00;;;19.90
19644;BMP180;9970;-36.854;174.870;2023-04-03T02:55:54;101145.00;;;19.90
19644;BMP180;9970;-36.854;174.870;2023-04-03T02:58:26;101139.00;;;19.90
19644;BMP180;9970;-36.854;174.870;2023-04-03T03:00:59;101136.00;;;19.90
19644;BMP180;9970;-36.854;174.870;2023-04-03T03:03:32;101140.00;;;19.90
19644;BMP180;9970;-36.854;174.870;2023-04-03T03:06:07;101134.00;;;19.80
19644;BMP180;9970;-36.854;174.870;2023-04-03T03:08:40;101136.00;;;19.80
19644;BMP180;9970;-36.854;174.870;2023-04-03T03:11:13;101133.00;;;19.80
19644;BMP180;9970;-36.854;174.870;2023-04-03T03:13:46;101127.00;;;19.80
19644;BMP180;9970;-36.854;174.870;2023-04-03T03:16:19;101133.00;;;19.70
19644;BMP180;9970;-36.854;174.870;2023-04-03T03:18:52;101140.00;;;19.70
19644;BMP180;9970;-36.854;174.870;2023-04-03T03:21:27;101134.00;;;19.70
19644;BMP180;9970;-36.854;174.870;2023-04-03T03:24:00;101137.00;;;19.70
19644;BMP180;9970;-36.854;174.870;2023-04-03T03:26:33;101139.00;;;19.70
19644;BMP180;9970;-36.854;174.870;2023-04-03T03:29:06;101129.00;;;19.70
19644;BMP180;9970;-36.854;174.870;2023-04-03T03:31:39;101130.00;;;19.70
19644;BMP180;9970;-36.854;174.870;2023-04-03T03:34:13;101128.00;;;19.70
19644;BMP180;9970;-36.854;174.870;2023-04-03T03:36:46;101136.00;;;19.60
19644;BMP180;9970;-36.854;174.870;2023-04-03T03:39:19;101127.00;;;19.60
19644;BMP180;9970;-36.854;174.870;2023-04-03T03:41:52;101123.00;;;19.60
19644;BMP180;9970;-36.854;174.870;2023-04-03T03:44:25;101129.00;;;19.60
19644;BMP180;9970;-36.854;174.870;2023-04-03T03:47:00;101128.00;;;19.60
19644;BMP180;9970;-36.854;174.870;2023-04-03T03:49:34;101132.00;;;19.50
19644;BMP180;9970;-36.854;174.870;2023-04-03T03:52:07;101125.00;;;19.50
19644;BMP180;9970;-36.854;174.870;2023-04-03T03:54:41;101132.00;;;19.50
19644;BMP180;9970;-36.854;174.870;2023-04-03T03:57:14;101134.00;;;19.50
19644;BMP180;9970;-36.854;174.870;2023-04-03T03:59:47;101125.00;;;19.50
19644;BMP180;9970;-36.854;174.870;2023-04-03T04:02:24;101127.00;;;19.40
19644;BMP180;9970;-36.854;174.870;2023-04-03T04:04:57;101117.00;;;19.40
19644;BMP180;9970;-36.854;174.870;2023-04-03T04:07:30;101117.00;;;19.40
19644;BMP180;9970;-36.854;174.870;2023-04-03T04:10:03;101116.00;;;19.40
19644;BMP180;9970;-36.854;174.870;2023-04-03T04:12:37;101114.00;;;19.40
19644;BMP180;9970;-36.854;174.870;2023-04-03T04:15:10;101116.00;;;19.40
19644;BMP180;9970;-36.854;174.870;2023-04-03T04:17:43;101120.00;;;19.40
19644;BMP180;9970;-36.854;174.870;2023-04-03T04:20:18;101120.00;;;19.40
19644;BMP180;9970;-36.854;174.870;2023-04-03T04:22:51;101117.00;;;19.40
19644;BMP180;9970;-36.854;174.870;2023-04-03T04:25:24;101121.00;;;19.40
19644;BMP180;9970;-36.854;174.870;2023-04-03T04:27:57;101113.00;;;19.40
19644;BMP180;9970;-36.854;174.870;2023-04-03T04:30:30;101125.00;;;19.30
19644;BMP180;9970;-36.854;174.870;2023-04-03T04:33:03;101124.00;;;19.30
19644;BMP180;9970;-36.854;174.870;2023-04-03T04:35:36;101128.00;;;19.30
19644;BMP180;9970;-36.854;174.870;2023-04-03T04:38:10;101136.00;;;19.20
19644;BMP180;9970;-36.854;174.870;2023-04-03T04:40:43;101128.00;;;19.20
19644;BMP180;9970;-36.854;174.870;2023-04-03T04:43:16;101138.00;;;19.20
19644;BMP180;9970;-36.854;174.870;2023-04-03T04:45:59;101127.00;;;19.20
19644;BMP180;9970;-36.854;174.870;2023-04-03T04:48:24;101141.00;;;19.20
19644;BMP180;9970;-36.854;174.870;2023-04-03T04:50:59;101135.00;;;19.10
19644;BMP180;9970;-36.854;174.870;2023-04-03T04:53:31;101140.00;;;19.10
19644;BMP180;9970;-36.854;174.870;2023-04-03T04:56:05;101145.00;;;19.10
19644;BMP180;9970;-36.854;174.870;2023-04-03T04:58:38;101137.00;;;19.10
19644;BMP180;9970;-36.854;174.870;2023-04-03T05:01:12;101147.00;;;19.00
19644;BMP180;9970;-36.854;174.870;2023-04-03T05:03:45;101135.00;;;19.00
19644;BMP180;9970;-36.854;174.870;2023-04-03T05:06:19;101139.00;;;18.90
19644;BMP180;9970;-36.854;174.870;2023-04-03T05:08:51;101145.00;;;18.90
19644;BMP180;9970;-36.854;174.870;2023-04-03T05:11:24;101144.00;;;18.90
19644;BMP180;9970;-36.854;174.870;2023-04-03T05:13:57;101144.00;;;18.90
19644;BMP180;9970;-36.854;174.870;2023-04-03T05:16:30;101150.00;;;18.90
19644;BMP180;9970;-36.854;174.870;2023-04-03T05:19:03;101145.00;;;18.80
19644;BMP180;9970;-36.854;174.870;2023-04-03T05:21:36;101145.00;;;18.80
19644;BMP180;9970;-36.854;174.870;2023-04-03T05:24:09;101157.00;;;18.80
19644;BMP180;9970;-36.854;174.870;2023-04-03T05:26:42;101153.00;;;18.80
19644;BMP180;9970;-36.854;174.870;2023-04-03T05:29:16;101159.00;;;18.80
19644;BMP180;9970;-36.854;174.870;2023-04-03T05:31:50;101160.00;;;18.80
19644;BMP180;9970;-36.854;174.870;2023-04-03T05:34:23;101169.00;;;18.80
19644;BMP180;9970;-36.854;174.870;2023-04-03T05:36:56;101161.00;;;18.80
19644;BMP180;9970;-36.854;174.870;2023-04-03T05:39:29;101168.00;;;18.80
19644;BMP180;9970;-36.854;174.870;2023-04-03T05:42:05;101170.00;;;18.70
19644;BMP180;9970;-36.854;174.870;2023-04-03T05:44:38;101164.00;;;18.70
19644;BMP180;9970;-36.854;174.870;2023-04-03T05:47:12;101168.00;;;18.70
19644;BMP180;9970;-36.854;174.870;2023-04-03T05:49:46;101176.00;;;18.70
19644;BMP180;9970;-36.854;174.870;2023-04-03T05:52:35;101182.00;;;18.70
19644;BMP180;9970;-36.854;174.870;2023-04-03T05:55:03;101180.00;;;18.60
19644;BMP180;9970;-36.854;174.870;2023-04-03T05:57:36;101191.00;;;18.60
19644;BMP180;9970;-36.854;174.870;2023-04-03T06:00:11;101188.00;;;18.60
19644;BMP180;9970;-36.854;174.870;2023-04-03T06:02:43;101192.00;;;18.60
19644;BMP180;9970;-36.854;174.870;2023-04-03T06:05:17;101194.00;;;18.50
19644;BMP180;9970;-36.854;174.870;2023-04-03T06:07:50;101203.00;;;18.50
19644;BMP180;9970;-36.854;174.870;2023-04-03T06:10:23;101212.00;;;18.50
19644;BMP180;9970;-36.854;174.870;2023-04-03T06:12:56;101205.00;;;18.50
19644;BMP180;9970;-36.854;174.870;2023-04-03T06:15:29;101222.00;;;18.50
19644;BMP180;9970;-36.854;174.870;2023-04-03T06:18:02;101220.00;;;18.50
19644;BMP180;9970;-36.854;174.870;2023-04-03T06:20:35;101227.00;;;18.50
19644;BMP180;9970;-36.854;174.870;2023-04-03T06:23:09;101226.00;;;18.40
19644;BMP180;9970;-36.854;174.870;2023-04-03T06:25:41;101224.00;;;18.40
19644;BMP180;9970;-36.854;174.870;2023-04-03T06:28:14;101223.00;;;18.40
19644;BMP180;9970;-36.854;174.870;2023-04-03T06:30:47;101226.00;;;18.40
19644;BMP180;9970;-36.854;174.870;2023-04-03T06:33:20;101227.00;;;18.40
19644;BMP180;9970;-36.854;174.870;2023-04-03T06:36:03;101230.00;;;18.30
19644;BMP180;9970;-36.854;174.870;2023-04-03T06:38:34;101237.00;;;18.30
19644;BMP180;9970;-36.854;174.870;2023-04-03T06:41:07;101232.00;;;18.30
19644;BMP180;9970;-36.854;174.870;2023-04-03T06:43:41;101243.00;;;18.20
19644;BMP180;9970;-36.854;174.870;2023-04-03T06:46:17;101255.00;;;18.20
19644;BMP180;9970;-36.854;174.870;2023-04-03T06:48:51;101262.00;;;18.20
19644;BMP180;9970;-36.854;174.870;2023-04-03T06:51:26;101258.00;;;18.20
19644;BMP180;9970;-36.854;174.870;2023-04-03T06:54:00;101247.00;;;18.20
19644;BMP180;9970;-36.854;174.870;2023-04-03T06:56:33;101253.00;;;18.10
19644;BMP180;9970;-36.854;174.870;2023-04-03T06:59:06;101245.00;;;18.20
19644;BMP180;9970;-36.854;174.870;2023-04-03T07:01:39;101256.00;;;18.20
19644;BMP180;9970;-36.854;174.870;2023-04-03T07:04:13;101250.00;;;18.10
19644;BMP180;9970;-36.854;174.870;2023-04-03T07:06:46;101251.00;;;18.10
19644;BMP180;9970;-36.854;174.870;2023-04-03T07:09:19;101267.00;;;18.10
19644;BMP180;9970;-36.854;174.870;2023-04-03T07:11:52;101278.00;;;18.10
19644;BMP180;9970;-36.854;174.870;2023-04-03T07:14:25;101277.00;;;18.10
19644;BMP180;9970;-36.854;174.870;2023-04-03T07:16:58;101284.00;;;18.00
19644;BMP180;9970;-36.854;174.870;2023-04-03T07:19:31;101284.00;;;18.00
19644;BMP180;9970;-36.854;174.870;2023-04-03T07:22:05;101294.00;;;18.00
19644;BMP180;9970;-36.854;174.870;2023-04-03T07:24:38;101286.00;;;18.00
19644;BMP180;9970;-36.854;174.870;2023-04-03T07:27:11;101282.00;;;18.00
19644;BMP180;9970;-36.854;174.870;2023-04-03T07:29:44;101293.00;;;17.90
19644;BMP180;9970;-36.854;174.870;2023-04-03T07:32:18;101289.00;;;17.90
19644;BMP180;9970;-36.854;174.870;2023-04-03T07:34:51;101294.00;;;17.90
19644;BMP180;9970;-36.854;174.870;2023-04-03T07:37:24;101292.00;;;17.90
19644;BMP180;9970;-36.854;174.870;2023-04-03T07:39:57;101296.00;;;17.90
19644;BMP180;9970;-36.854;174.870;2023-04-03T07:42:31;101303.00;;;17.90
19644;BMP180;9970;-36.854;174.870;2023-04-03T07:45:04;101295.00;;;17.90
19644;BMP180;9970;-36.854;174.870;2023-04-03T07:47:38;101299.00;;;17.90
19644;BMP180;9970;-36.854;174.870;2023-04-03T07:50:12;101302.00;;;17.80
19644;BMP180;9970;-36.854;174.870;2023-04-03T07:52:45;101298.00;;;17.90
19644;BMP180;9970;-36.854;174.870;2023-04-03T07:55:18;101309.00;;;17.90
19644;BMP180;9970;-36.854;174.870;2023-04-03T07:57:52;101305.00;;;17.90
19644;BMP180;9970;-36.854;174.870;2023-04-03T08:00:25;101305.00;;;17.90
19644;BMP180;9970;-36.854;174.870;2023-04-03T08:02:58;101311.00;;;17.80
19644;BMP180;9970;-36.854;174.870;2023-04-03T08:05:30;101306.00;;;17.80
19644;BMP180;9970;-36.854;174.870;2023-04-03T08:08:04;101306.00;;;17.80
19644;BMP180;9970;-36.854;174.870;2023-04-03T08:10:37;101307.00;;;17.80
19644;BMP180;9970;-36.854;174.870;2023-04-03T08:13:11;101313.00;;;17.80
19644;BMP180;9970;-36.854;174.870;2023-04-03T08:15:44;101316.00;;;17.80
19644;BMP180;9970;-36.854;174.870;2023-04-03T08:18:17;101319.00;;;17.80
19644;BMP180;9970;-36.854;174.870;2023-04-03T08:20:51;101315.00;;;17.80
19644;BMP180;9970;-36.854;174.870;2023-04-03T08:23:24;101323.00;;;17.80
19644;BMP180;9970;-36.854;174.870;2023-04-03T08:25:57;101330.00;;;17.80
19644;BMP180;9970;-36.854;174.870;2023-04-03T08:28:30;101320.00;;;17.80
19644;BMP180;9970;-36.854;174.870;2023-04-03T08:31:08;101333.00;;;17.80
19644;BMP180;9970;-36.854;174.870;2023-04-03T08:33:42;101337.00;;;17.80
19644;BMP180;9970;-36.854;174.870;2023-04-03T08:36:23;101349.00;;;17.80
19644;BMP180;9970;-36.854;174.870;2023-04-03T08:38:56;101360.00;;;17.80
19644;BMP180;9970;-36.854;174.870;2023-04-03T08:41:32;101358.00;;;17.80
19644;BMP180;9970;-36.854;174.870;2023-04-03T08:44:15;101360.00;;;17.80
19644;BMP180;9970;-36.854;174.870;2023-04-03T08:49:58;101355.00;;;17.80
19644;BMP180;9970;-36.854;174.870;2023-04-03T08:52:45;101355.00;;;17.80
19644;BMP180;9970;-36.854;174.870;2023-04-03T08:55:23;101351.00;;;17.80
19644;BMP180;9970;-36.854;174.870;2023-04-03T08:58:04;101355.00;;;17.80
19644;BMP180;9970;-36.854;174.870;2023-04-03T09:00:43;101361.00;;;17.90
19644;BMP180;9970;-36.854;174.870;2023-04-03T09:03:16;101356.00;;;17.90
19644;BMP180;9970;-36.854;174.870;2023-04-03T09:06:00;101357.00;;;17.90
19644;BMP180;9970;-36.854;174.870;2023-04-03T09:08:43;101366.00;;;17.90
19644;BMP180;9970;-36.854;174.870;2023-04-03T09:14:41;101371.00;;;17.80
19644;BMP180;9970;-36.854;174.870;2023-04-03T09:20:09;101376.00;;;17.80
19644;BMP180;9970;-36.854;174.870;2023-04-03T09:22:41;101370.00;;;17.80
19644;BMP180;9970;-36.854;174.870;2023-04-03T09:25:32;101370.00;;;17.80
19644;BMP180;9970;-36.854;174.870;2023-04-03T09:28:05;101364.00;;;17.80
19644;BMP180;9970;-36.854;174.870;2023-04-03T09:30:39;101379.00;;;17.80
19644;BMP180;9970;-36.854;174.870;2023-04-03T09:33:13;101370.00;;;17.80
19644;BMP180;9970;-36.854;174.870;2023-04-03T09:35:47;101365.00;;;17.80
19644;BMP180;9970;-36.854;174.870;2023-04-03T09:38:21;101367.00;;;17.80
19644;BMP180;9970;-36.854;174.870;2023-04-03T09:41:17;101369.00;;;17.80
19644;BMP180;9970;-36.854;174.870;2023-04-03T09:43:51;101371.00;;;17.90
19644;BMP180;9970;-36.854;174.870;2023-04-03T09:46:31;101372.00;;;17.90
19644;BMP180;9970;-36.854;174.870;2023-04-03T09:49:05;101377.00;;;17.80
19644;BMP180;9970;-36.854;174.870;2023-04-03T09:51:38;101377.00;;;17.80
19644;BMP180;9970;-36.854;174.870;2023-04-03T09:54:34;101369.00;;;17.90
19644;BMP180;9970;-36.854;174.870;2023-04-03T09:57:11;101362.00;;;17.90
19644;BMP180;9970;-36.854;174.870;2023-04-03T09:59:56;101370.00;;;17.90
19644;BMP180;9970;-36.854;174.870;2023-04-03T10:02:28;101365.00;;;17.90
19644;BMP180;9970;-36.854;174.870;2023-04-03T10:04:57;101365.00;;;17.90
19644;BMP180;9970;-36.854;174.870;2023-04-03T10:07:35;101363.00;;;17.90
19644;BMP180;9970;-36.854;174.870;2023-04-03T10:10:22;101373.00;;;17.90
19644;BMP180;9970;-36.854;174.870;2023-04-03T10:13:09;101361.00;;;17.90
19644;BMP180;9970;-36.854;174.870;2023-04-03T10:18:55;101376.00;;;17.90
19644;BMP180;9970;-36.854;174.870;2023-04-03T10:21:35;101381.00;;;17.90
19644;BMP180;9970;-36.854;174.870;2023-04-03T10:27:08;101388.00;;;18.00
19644;BMP180;9970;-36.854;174.870;2023-04-03T10:30:03;101395.00;;;18.00
19644;BMP180;9970;-36.854;174.870;2023-04-03T10:32:58;101390.00;;;18.00
19644;BMP180;9970;-36.854;174.870;2023-04-03T10:47:10;101409.00;;;18.00
19644;BMP180;9970;-36.854;174.870;2023-04-03T10:52:46;101420.00;;;18.10
19644;BMP180;9970;-36.854;174.870;2023-04-03T10:57:57;101413.00;;;18.10
19644;BMP180;9970;-36.854;174.870;2023-04-03T11:00:45;101409.00;;;18.10
19644;BMP180;9970;-36.854;174.870;2023-04-03T11:03:24;101419.00;;;18.10
19644;BMP180;9970;-36.854;174.870;2023-04-03T11:05:57;101414.00;;;18.10
19644;BMP180;9970;-36.854;174.870;2023-04-03T11:08:38;101410.00;;;18.10
19644;BMP180;9970;-36.854;174.870;2023-04-03T11:11:18;101416.00;;;18.10
19644;BMP180;9970;-36.854;174.870;2023-04-03T11:16:39;101426.00;;;18.20
19644;BMP180;9970;-36.854;174.870;2023-04-03T11:19:27;101425.00;;;18.20
19644;BMP180;9970;-36.854;174.870;2023-04-03T11:21:57;101432.00;;;18.20
19644;BMP180;9970;-36.854;174.870;2023-04-03T11:24:34;101431.00;;;18.20
19644;BMP180;9970;-36.854;174.870;2023-04-03T11:27:11;101431.00;;;18.20
19644;BMP180;9970;-36.854;174.870;2023-04-03T11:29:44;101428.00;;;18.20
19644;BMP180;9970;-36.854;174.870;2023-04-03T11:32:33;101417.00;;;18.20
19644;BMP180;9970;-36.854;174.870;2023-04-03T11:35:02;101418.00;;;18.20
19644;BMP180;9970;-36.854;174.870;2023-04-03T11:37:44;101433.00;;;18.20
19644;BMP180;9970;-36.854;174.870;2023-04-03T11:40:22;101423.00;;;18.20
19644;BMP180;9970;-36.854;174.870;2023-04-03T11:43:03;101430.00;;;18.20
19644;BMP180;9970;-36.854;174.870;2023-04-03T11:45:37;101427.00;;;18.20
19644;BMP180;9970;-36.854;174.870;2023-04-03T11:53:50;101427.00;;;18.20
19644;BMP180;9970;-36.854;174.870;2023-04-03T11:56:27;101425.00;;;18.10
19644;BMP180;9970;-36.854;174.870;2023-04-03T12:01:49;101421.00;;;18.10
19644;BMP180;9970;-36.854;174.870;2023-04-03T12:04:25;101423.00;;;18.10
19644;BMP180;9970;-36.854;174.870;2023-04-03T12:07:16;101433.00;;;18.10
19644;BMP180;9970;-36.854;174.870;2023-04-03T12:15:38;101436.00;;;18.10
19644;BMP180;9970;-36.854;174.870;2023-04-03T12:17:59;101436.00;;;18.10
19644;BMP180;9970;-36.854;174.870;2023-04-03T12:20:52;101428.00;;;18.10
19644;BMP180;9970;-36.854;174.870;2023-04-03T12:23:36;101426.00;;;18.00
19644;BMP180;9970;-36.854;174.870;2023-04-03T12:26:26;101427.00;;;18.00
19644;BMP180;9970;-36.854;174.870;2023-04-03T12:29:24;101422.00;;;18.00
19644;BMP180;9970;-36.854;174.870;2023-04-03T12:31:42;101424.00;;;18.00
19644;BMP180;9970;-36.854;174.870;2023-04-03T12:34:43;101425.00;;;18.00
19644;BMP180;9970;-36.854;174.870;2023-04-03T12:51:40;101417.00;;;17.90
19644;BMP180;9970;-36.854;174.870;2023-04-03T12:54:29;101418.00;;;17.90
19644;BMP180;9970;-36.854;174.870;2023-04-03T12:57:26;101421.00;;;17.90
19644;BMP180;9970;-36.854;174.870;2023-04-03T13:00:00;101417.00;;;17.90
19644;BMP180;9970;-36.854;174.870;2023-04-03T13:02:35;101420.00;;;17.90
19644;BMP180;9970;-36.854;174.870;2023-04-03T13:05:10;101415.00;;;17.90
19644;BMP180;9970;-36.854;174.870;2023-04-03T13:07:43;101413.00;;;17.80
19644;BMP180;9970;-36.854;174.870;2023-04-03T13:10:18;101413.00;;;17.90
19644;BMP180;9970;-36.854;174.870;2023-04-03T13:13:07;101422.00;;;17.90
19644;BMP180;9970;-36.854;174.870;2023-04-03T13:15:30;101419.00;;;17.90
19644;BMP180;9970;-36.854;174.870;2023-04-03T13:18:05;101427.00;;;17.90
19644;BMP180;9970;-36.854;174.870;2023-04-03T13:20:41;101424.00;;;17.90
19644;BMP180;9970;-36.854;174.870;2023-04-03T13:23:14;101425.00;;;17.90
19644;BMP180;9970;-36.854;174.870;2023-04-03T13:25:49;101432.00;;;17.90
19644;BMP180;9970;-36.854;174.870;2023-04-03T13:28:23;101428.00;;;17.80
19644;BMP180;9970;-36.854;174.870;2023-04-03T13:31:19;101428.00;;;17.80
19644;BMP180;9970;-36.854;174.870;2023-04-03T13:39:31;101427.00;;;17.80
19644;BMP180;9970;-36.854;174.870;2023-04-03T13:42:02;101423.00;;;17.80
19644;BMP180;9970;-36.854;174.870;2023-04-03T13:44:37;101433.00;;;17.80
19644;BMP180;9970;-36.854;174.870;2023-04-03T13:50:03;101430.00;;;17.80
19644;BMP180;9970;-36.854;174.870;2023-04-03T13:52:48;101422.00;;;17.80
19644;BMP180;9970;-36.854;174.870;2023-04-03T13:55:33;101415.00;;;17.80
19644;BMP180;9970;-36.854;174.870;2023-04-03T14:00:51;101417.00;;;17.80
19644;BMP180;9970;-36.854;174.870;2023-04-03T14:06:07;101417.00;;;17.80
19644;BMP180;9970;-36.854;174.870;2023-04-03T14:08:40;101419.00;;;17.80
19644;BMP180;9970;-36.854;174.870;2023-04-03T14:11:26;101410.00;;;17.80
19644;BMP180;9970;-36.854;174.870;2023-04-03T14:14:02;101426.00;;;17.80
19644;BMP180;9970;-36.854;174.870;2023-04-03T14:16:30;101424.00;;;17.80
19644;BMP180;9970;-36.854;174.870;2023-04-03T14:19:04;101427.00;;;17.80
19644;BMP180;9970;-36.854;174.870;2023-04-03T14:21:37;101427.00;;;17.80
19644;BMP180;9970;-36.854;174.870;2023-04-03T14:24:10;101412.00;;;17.80
19644;BMP180;9970;-36.854;174.870;2023-04-03T14:26:44;101418.00;;;17.80
19644;BMP180;9970;-36.854;174.870;2023-04-03T14:29:17;101410.00;;;17.80
19644;BMP180;9970;-36.854;174.870;2023-04-03T14:31:51;101413.00;;;17.80
19644;BMP180;9970;-36.854;174.870;2023-04-03T14:34:25;101408.00;;;17.70
19644;BMP180;9970;-36.854;174.870;2023-04-03T14:36:58;101408.00;;;17.70
19644;BMP180;9970;-36.854;174.870;2023-04-03T14:39:32;101408.00;;;17.70
19644;BMP180;9970;-36.854;174.870;2023-04-03T14:42:06;101417.00;;;17.70
19644;BMP180;9970;-36.854;174.870;2023-04-03T14:44:43;101413.00;;;17.70
19644;BMP180;9970;-36.854;174.870;2023-04-03T14:47:22;101398.00;;;17.70
19644;BMP180;9970;-36.854;174.870;2023-04-03T14:49:56;101405.00;;;17.70
19644;BMP180;9970;-36.854;174.870;2023-04-03T14:52:31;101403.00;;;17.70
19644;BMP180;9970;-36.854;174.870;2023-04-03T14:55:05;101406.00;;;17.70
19644;BMP180;9970;-36.854;174.870;2023-04-03T14:57:39;101403.00;;;17.70
19644;BMP180;9970;-36.854;174.870;2023-04-03T15:00:17;101401.00;;;17.70
19644;BMP180;9970;-36.854;174.870;2023-04-03T15:02:50;101404.00;;;17.70
19644;BMP180;9970;-36.854;174.870;2023-04-03T15:05:23;101402.00;;;17.70
19644;BMP180;9970;-36.854;174.870;2023-04-03T15:07:57;101406.00;;;17.70
19644;BMP180;9970;-36.854;174.870;2023-04-03T15:10:31;101399.00;;;17.70
19644;BMP180;9970;-36.854;174.870;2023-04-03T15:13:05;101394.00;;;17.60
19644;BMP180;9970;-36.854;174.870;2023-04-03T15:15:38;101394.00;;;17.60
19644;BMP180;9970;-36.854;174.870;2023-04-03T15:18:13;101392.00;;;17.60
19644;BMP180;9970;-36.854;174.870;2023-04-03T15:20:46;101388.00;;;17.60
19644;BMP180;9970;-36.854;174.870;2023-04-03T15:23:19;101392.00;;;17.60
19644;BMP180;9970;-36.854;174.870;2023-04-03T15:25:53;101396.00;;;17.60
19644;BMP180;9970;-36.854;174.870;2023-04-03T15:28:34;101383.00;;;17.60
19644;BMP180;9970;-36.854;174.870;2023-04-03T15:31:08;101394.00;;;17.60
19644;BMP180;9970;-36.854;174.870;2023-04-03T15:33:42;101392.00;;;17.60
19644;BMP180;9970;-36.854;174.870;2023-04-03T15:36:17;101392.00;;;17.60
19644;BMP180;9970;-36.854;174.870;2023-04-03T15:38:51;101404.00;;;17.60